Terminal Aerodrome Forecast
Issued by NWS

Home | Current Version | Previous Version | Text Only | Print | Product List | Glossary On
Versions: 1 2 3 4 5 6 7 8 9 10 11 12
000
FTUS46 KMTR 061720
TAFSTS
TAF
KSTS 061720Z 0618/0718 19008KT P6SM SCT018 SCT250
     FM062000 19012KT P6SM SCT250
     FM070300 15006KT P6SM FEW250
     FM070600 VRB03KT P6SM BKN010
     FM071000 00000KT P6SM OVC008
     FM071700 VRB02KT P6SM SCT012=

USA.gov is the U.S. government's official web portal to all federal, state and local government web resources and services.